MMVA/VSA METAR and TAF weather

Enter ICAO airport designator
Station Type Date Time Source
MMVA METAR 2020/11/28 18:41 UTC NOAA

MMVA 281841Z 06008KT 7SM SCT012 29/24 A2992 RMK 8/100


Station Type Date Time Source
MMVA Decoded METAR 2020/11/28 18:41 UTC NOAA

Villahermosa , Mexico (MMVA) 18-00N 092-49W
Nov 28, 2020 - 01:41 PM EST / 2020.11.28 1841 UTC
Wind: from the ENE (060 degrees) at 9 MPH (8 KT):0
Visibility: 7 mile(s):0
Sky conditions: partly cloudy
Temperature: 84 F (29 C)
Dew Point: 75 F (24 C)
Relative Humidity: 74%
Pressure (altimeter): 29.92 in. Hg (1013 hPa)
ob: MMVA 281841Z 06008KT 7SM SCT012 29/24 A2992 RMK 8/100
cycle: 18

Station Type Date Time Source
MMVA TAF 2020/11/28 18:15 UTC NOAA

TAF MMVA 281608Z 2818/2918 05010KT P6SM SCT015 BKN025
FM290300 07006KT 6SM HZ SCT010 BKN020
TEMPO 2911/2915 1SM BR HZ BKN002
FM291600 13005KT 5SM HZ BKN010

Example: see airport list